Terminal Aerodrome Forecast
Issued by NWS

Home | Current Version | Previous Version | Text Only | Print | Product List | Glossary On
Versions: 1 2 3 4 5 6 7 8 9 10 11 12 13 14 15 16 17 18 19 20 21 22 23 24 25 26 27 28 29 30 31 32 33
000
FTUS45 KPSR 300520
TAFIWA
TAF
KIWA 300520Z 3006/0106 24005KT P6SM SCT110
     FM300800 12007KT P6SM FEW110
     FM301800 19014G22KT P6SM SCT090 BKN110
     FM302200 24014G25KT P6SM VCTS SCT090CB BKN110
     FM010300 27009KT P6SM BKN100
      AMD LTD TO CLD VIS AND WIND TIL 301300=

USA.gov is the U.S. government's official web portal to all federal, state and local government web resources and services.